YPGV/GOV METAR and TAF weather

Enter ICAO airport designator
Station Type Date Time Source
YPGV METAR 2019/12/11 12:00 UTC NOAA

YPGV 111200Z AUTO 04003KT 9999 // NCD 29/23 Q1009


Station Type Date Time Source
YPGV Decoded METAR 2019/12/11 12:00 UTC NOAA

Station name not available
Dec 11, 2019 - 07:00 AM EST / 2019.12.11 1200 UTC
Wind: from the NE (040 degrees) at 3 MPH (3 KT):0
Visibility: greater than 7 mile(s):0
Temperature: 84 F (29 C)
Dew Point: 73 F (23 C)
Relative Humidity: 70%
Pressure (altimeter): 29.80 in. Hg (1009 hPa)
ob: YPGV 111200Z AUTO 04003KT 9999 // NCD 29/23 Q1009
cycle: 12

Station Type Date Time Source
YPGV TAF 2019/12/11 08:00 UTC NOAA

TAF YPGV 110625Z 1108/1120 06010KT CAVOK
FM111200 VRB03KT 8000 FU FEW012
TEMPO 1112/1120 0500 FU

Example: see airport list